createdAt,value
2024-05-09T00:02:15.962Z,45.80
2024-05-09T00:04:46.277Z,45.80
2024-05-09T00:07:16.895Z,45.90
2024-05-09T00:09:48.129Z,45.80
2024-05-09T00:12:21.065Z,45.90
2024-05-09T00:14:51.436Z,45.90
2024-05-09T00:17:21.635Z,45.90
2024-05-09T00:19:51.894Z,45.90
2024-05-09T00:22:21.740Z,45.80
2024-05-09T00:24:51.788Z,46.50
2024-05-09T00:27:25.597Z,45.70
2024-05-09T00:29:55.714Z,45.80
2024-05-09T00:32:26.468Z,45.80
2024-05-09T00:34:57.488Z,45.80
2024-05-09T00:37:32.275Z,45.90
2024-05-09T00:40:18.747Z,45.80
2024-05-09T00:43:02.785Z,45.90
2024-05-09T00:45:57.995Z,45.90
2024-05-09T00:49:21.274Z,46.00
2024-05-09T00:52:34.462Z,46.00
2024-05-09T00:55:11.460Z,46.00
2024-05-09T00:58:35.422Z,46.20
2024-05-09T01:01:18.294Z,46.20
2024-05-09T01:04:05.866Z,46.20
2024-05-09T01:06:44.150Z,46.20
2024-05-09T01:09:18.859Z,46.40
2024-05-09T01:11:52.636Z,46.60
2024-05-09T01:14:22.881Z,46.60
2024-05-09T01:16:55.978Z,46.60
2024-05-09T01:19:28.712Z,46.70
2024-05-09T01:21:59.054Z,46.90
2024-05-09T01:24:31.684Z,46.60
2024-05-09T01:27:02.177Z,46.80
2024-05-09T01:29:32.349Z,47.40
2024-05-09T01:32:04.882Z,46.70
2024-05-09T01:34:35.575Z,46.70
2024-05-09T01:37:05.934Z,46.80
2024-05-09T01:39:38.595Z,46.70
2024-05-09T01:42:09.458Z,46.80
2024-05-09T01:44:39.435Z,47.60
2024-05-09T01:47:09.602Z,47.00
2024-05-09T01:49:40.818Z,46.90
2024-05-09T01:52:11.211Z,47.00
2024-05-09T01:54:44.214Z,47.00
2024-05-09T01:57:14.366Z,46.90
2024-05-09T01:59:44.554Z,47.10
2024-05-09T02:02:15.160Z,47.10
2024-05-09T02:04:45.644Z,47.20
2024-05-09T02:07:16.018Z,47.20
2024-05-09T02:09:48.932Z,47.20
2024-05-09T02:12:19.031Z,47.20
2024-05-09T02:14:49.359Z,47.10
2024-05-09T02:17:19.360Z,47.30
2024-05-09T02:19:49.390Z,47.20
2024-05-09T02:22:19.684Z,47.30
2024-05-09T02:24:52.354Z,47.30
2024-05-09T02:27:22.646Z,47.50
2024-05-09T02:29:52.526Z,47.60
2024-05-09T02:32:23.003Z,47.50
2024-05-09T02:34:53.201Z,47.60
2024-05-09T02:37:23.150Z,47.50
2024-05-09T02:39:53.112Z,47.60
2024-05-09T02:42:23.025Z,47.60
2024-05-09T02:44:50.345Z,47.50
2024-05-09T02:47:20.607Z,47.60
2024-05-09T02:49:48.055Z,47.30
2024-05-09T02:52:20.440Z,47.70
2024-05-09T02:54:47.659Z,47.60
2024-05-09T02:57:20.286Z,47.60
2024-05-09T02:59:47.889Z,47.60
2024-05-09T03:02:18.243Z,47.70
2024-05-09T03:04:45.745Z,47.80
2024-05-09T03:07:17.780Z,47.60
2024-05-09T03:09:47.132Z,47.80
2024-05-09T03:12:20.391Z,47.70
2024-05-09T03:14:50.553Z,47.60
2024-05-09T03:17:20.818Z,47.60
2024-05-09T03:19:48.072Z,47.70
2024-05-09T03:22:18.107Z,47.70
2024-05-09T03:24:45.400Z,47.60
2024-05-09T03:27:15.932Z,47.90
2024-05-09T03:29:45.949Z,47.80
2024-05-09T03:32:16.216Z,47.70
2024-05-09T03:34:43.666Z,47.80
2024-05-09T03:37:14.207Z,47.80
2024-05-09T03:39:44.227Z,47.80
2024-05-09T03:42:14.477Z,47.90
2024-05-09T03:44:45.297Z,47.90
2024-05-09T03:47:15.479Z,48.00
2024-05-09T03:49:45.588Z,47.90
2024-05-09T03:52:12.885Z,47.90
2024-05-09T03:54:47.760Z,47.90
2024-05-09T03:57:15.364Z,47.90
2024-05-09T03:59:45.281Z,48.00
2024-05-09T04:02:15.319Z,48.00
2024-05-09T04:04:45.375Z,48.10
2024-05-09T04:07:15.686Z,48.00
2024-05-09T04:09:43.021Z,47.90
2024-05-09T04:12:13.583Z,48.10
2024-05-09T04:14:43.378Z,47.90
2024-05-09T04:17:13.760Z,48.40
2024-05-09T04:19:43.834Z,48.20
2024-05-09T04:22:13.648Z,48.20
2024-05-09T04:24:40.841Z,48.10
2024-05-09T04:27:11.105Z,48.10
2024-05-09T04:29:39.556Z,48.20
2024-05-09T04:32:10.278Z,48.00
2024-05-09T04:34:43.830Z,48.10
2024-05-09T04:37:17.476Z,48.20
2024-05-09T04:39:44.704Z,48.00
2024-05-09T04:42:14.594Z,48.20
2024-05-09T04:44:42.046Z,48.20
2024-05-09T04:47:12.032Z,48.00
2024-05-09T04:49:39.443Z,48.10
2024-05-09T04:52:09.672Z,48.30
2024-05-09T04:54:39.935Z,48.00
2024-05-09T04:57:10.023Z,48.30
2024-05-09T04:59:37.580Z,48.10
2024-05-09T05:02:08.049Z,48.30
2024-05-09T05:04:35.822Z,48.10
2024-05-09T05:07:05.895Z,48.30
2024-05-09T05:09:33.185Z,48.00
2024-05-09T05:12:26.038Z,48.20
2024-05-09T05:14:53.820Z,48.20
2024-05-09T05:17:24.170Z,48.20
2024-05-09T05:19:51.934Z,48.20
2024-05-09T05:22:22.116Z,48.20
2024-05-09T05:24:49.882Z,48.00
2024-05-09T05:27:22.792Z,48.10
2024-05-09T05:29:50.594Z,48.00
2024-05-09T05:32:20.657Z,48.60
2024-05-09T05:34:47.982Z,47.80
2024-05-09T05:37:18.032Z,47.90
2024-05-09T05:39:45.458Z,47.90
2024-05-09T05:42:15.386Z,47.90
2024-05-09T05:44:45.730Z,47.60
2024-05-09T05:47:16.156Z,47.80
2024-05-09T05:49:43.747Z,47.50
2024-05-09T05:52:14.122Z,47.60
2024-05-09T05:54:41.416Z,47.70
2024-05-09T05:57:11.587Z,47.70
2024-05-09T06:02:25.597Z,47.50
2024-05-09T06:04:53.124Z,47.50
2024-05-09T06:07:23.474Z,47.40
2024-05-09T06:09:52.981Z,47.30
2024-05-09T06:12:23.351Z,47.10
2024-05-09T06:14:51.110Z,47.40
2024-05-09T06:17:24.367Z,47.20
2024-05-09T06:19:52.193Z,47.20
2024-05-09T06:22:22.538Z,47.20
2024-05-09T06:24:49.796Z,47.00
2024-05-09T06:27:19.860Z,47.00
2024-05-09T06:29:47.203Z,47.10
2024-05-09T06:32:17.587Z,47.20
2024-05-09T06:34:47.878Z,46.90
2024-05-09T06:37:18.284Z,46.80
2024-05-09T06:39:46.067Z,47.00
2024-05-09T06:42:16.369Z,46.90
2024-05-09T06:44:43.728Z,47.00
2024-05-09T06:47:14.261Z,47.10
2024-05-09T06:49:41.767Z,47.00
2024-05-09T06:52:14.636Z,46.80
2024-05-09T06:54:42.014Z,46.90
2024-05-09T06:57:11.828Z,47.00
2024-05-09T06:59:39.220Z,46.80
2024-05-09T07:02:09.279Z,46.70
2024-05-09T07:04:37.361Z,47.20
2024-05-09T07:07:09.706Z,46.70
2024-05-09T07:09:39.652Z,46.60
2024-05-09T07:12:10.116Z,46.60
2024-05-09T07:14:38.597Z,46.80
2024-05-09T07:17:09.168Z,46.50
2024-05-09T07:19:37.217Z,46.40
2024-05-09T07:22:07.456Z,46.40
2024-05-09T07:24:35.871Z,46.40
2024-05-09T07:27:08.538Z,46.50
2024-05-09T07:29:38.555Z,46.30
2024-05-09T07:32:09.411Z,46.60
2024-05-09T07:34:37.150Z,46.30
2024-05-09T07:37:12.673Z,46.60
2024-05-09T07:39:40.260Z,46.20
2024-05-09T07:42:12.685Z,46.20
2024-05-09T07:44:40.258Z,46.10
2024-05-09T07:48:14.800Z,46.10
2024-05-09T07:51:33.054Z,46.80
2024-05-09T07:53:34.628Z,46.40
2024-05-09T07:55:34.433Z,46.50
2024-05-09T07:58:07.584Z,46.20
2024-05-09T08:00:35.290Z,45.90
2024-05-09T08:03:05.295Z,45.80
2024-05-09T08:05:33.058Z,45.60
2024-05-09T08:08:03.109Z,45.40
2024-05-09T08:10:30.799Z,45.20
2024-05-09T08:13:00.805Z,45.30
2024-05-09T08:15:30.938Z,45.40
2024-05-09T08:18:01.190Z,45.30
2024-05-09T08:20:33.501Z,45.20
2024-05-09T08:23:05.029Z,45.20
2024-05-09T08:25:32.699Z,45.10
2024-05-09T08:28:02.653Z,44.90
2024-05-09T08:30:37.060Z,44.80
2024-05-09T08:33:08.990Z,44.70
2024-05-09T08:35:36.614Z,44.70
2024-05-09T08:38:07.149Z,44.60
2024-05-09T08:40:37.024Z,44.60
2024-05-09T08:43:11.927Z,44.50
2024-05-09T08:45:44.745Z,44.30
2024-05-09T08:48:16.663Z,44.40
2024-05-09T08:50:45.493Z,44.00
2024-05-09T08:53:16.018Z,43.90
2024-05-09T08:55:44.214Z,43.90
2024-05-09T08:58:17.363Z,43.90
2024-05-09T09:00:48.221Z,43.90
2024-05-09T09:03:20.795Z,43.80
2024-05-09T09:05:52.969Z,43.70
2024-05-09T09:08:23.070Z,43.50
2024-05-09T09:10:53.347Z,43.30
2024-05-09T09:13:23.691Z,43.40
2024-05-09T09:15:58.164Z,43.20
2024-05-09T09:18:29.564Z,43.10
2024-05-09T09:20:56.946Z,43.00
2024-05-09T09:23:28.312Z,42.70
2024-05-09T09:25:58.815Z,42.60
2024-05-09T09:28:30.166Z,42.40
2024-05-09T09:31:05.016Z,42.20
2024-05-09T09:33:36.496Z,42.10
2024-05-09T09:36:05.843Z,42.00
2024-05-09T09:38:38.376Z,41.60
2024-05-09T09:41:07.701Z,41.50
2024-05-09T09:43:38.106Z,41.50
2024-05-09T09:46:12.261Z,41.40
2024-05-09T09:48:43.062Z,41.10
2024-05-09T09:51:10.752Z,40.80
2024-05-09T09:53:40.995Z,40.50
2024-05-09T09:56:08.401Z,40.60
2024-05-09T09:58:38.612Z,40.40
2024-05-09T10:01:08.800Z,40.30
2024-05-09T10:03:39.214Z,40.10
2024-05-09T10:06:07.088Z,40.20
2024-05-09T10:08:38.005Z,40.50
2024-05-09T10:11:06.116Z,40.30
2024-05-09T10:13:36.460Z,40.10
2024-05-09T10:16:11.497Z,39.60
2024-05-09T10:18:42.280Z,39.70
2024-05-09T10:21:16.872Z,39.90
2024-05-09T10:23:46.982Z,39.80
2024-05-09T10:26:14.544Z,40.20
2024-05-09T10:28:46.066Z,39.20
2024-05-09T10:31:16.855Z,38.80
2024-05-09T10:33:51.925Z,38.40
2024-05-09T10:36:20.889Z,38.20
2024-05-09T10:38:51.608Z,38.00
2024-05-09T10:41:19.359Z,37.50
2024-05-09T10:43:49.335Z,37.30
2024-05-09T10:46:19.935Z,36.80
2024-05-09T10:48:50.239Z,36.30
2024-05-09T10:51:18.298Z,36.30
2024-05-09T10:53:49.023Z,36.40
2024-05-09T10:56:16.809Z,36.40
2024-05-09T10:58:46.776Z,36.70
2024-05-09T11:01:14.518Z,36.70
2024-05-09T11:03:49.592Z,36.20
2024-05-09T11:06:17.655Z,36.20
2024-05-09T11:08:48.002Z,35.80
2024-05-09T11:11:15.704Z,35.60
2024-05-09T11:13:45.671Z,34.80
2024-05-09T11:16:19.602Z,34.80
2024-05-09T11:18:59.670Z,35.00
2024-05-09T11:21:27.312Z,35.20
2024-05-09T11:23:57.282Z,34.80
2024-05-09T11:26:25.613Z,35.10
2024-05-09T11:28:55.506Z,35.70
2024-05-09T11:31:23.441Z,35.30
2024-05-09T11:33:56.290Z,32.00
2024-05-09T11:36:26.571Z,32.60
2024-05-09T11:38:56.569Z,33.20
2024-05-09T11:41:24.563Z,33.30
2024-05-09T11:43:54.585Z,33.90
2024-05-09T11:46:22.272Z,35.20
2024-05-09T11:48:52.288Z,32.20
2024-05-09T11:51:19.797Z,30.00
2024-05-09T11:53:52.377Z,30.80
2024-05-09T11:56:19.614Z,29.20
2024-05-09T11:58:49.844Z,28.10
2024-05-09T12:01:19.998Z,27.20
2024-05-09T12:03:51.991Z,28.20
2024-05-09T12:06:19.344Z,27.80
2024-05-09T12:08:52.207Z,26.10
2024-05-09T12:11:19.839Z,27.20
2024-05-09T12:13:49.856Z,27.40
2024-05-09T12:16:17.476Z,26.70
2024-05-09T12:18:47.692Z,27.50
2024-05-09T12:21:17.528Z,27.90
2024-05-09T12:23:47.826Z,27.20
2024-05-09T12:26:17.776Z,25.90
2024-05-09T12:28:48.014Z,26.80
2024-05-09T12:31:15.398Z,28.50
2024-05-09T12:33:45.595Z,27.30
2024-05-09T12:36:13.954Z,26.50
2024-05-09T12:38:44.219Z,26.00
2024-05-09T12:41:11.487Z,25.60
2024-05-09T12:43:44.532Z,25.20
2024-05-09T12:46:11.733Z,25.10
2024-05-09T12:48:41.884Z,24.90
2024-05-09T12:51:09.495Z,24.70
2024-05-09T12:53:39.594Z,25.40
2024-05-09T12:58:37.372Z,27.10
2024-05-09T13:01:07.684Z,27.30
2024-05-09T13:03:38.036Z,27.10
2024-05-09T13:06:05.971Z,27.40
2024-05-09T13:08:36.209Z,28.10
2024-05-09T13:11:03.455Z,28.30
2024-05-09T13:13:33.490Z,28.20
2024-05-09T13:16:00.680Z,28.10
2024-05-09T13:18:33.750Z,28.50
2024-05-09T13:21:01.212Z,29.20
2024-05-09T13:23:31.107Z,29.30
2024-05-09T13:25:58.857Z,29.40
2024-05-09T13:28:31.943Z,28.70
2024-05-09T13:30:59.742Z,28.20
2024-05-09T13:33:29.794Z,27.60
2024-05-09T13:36:00.181Z,27.20
2024-05-09T13:38:30.082Z,27.20
2024-05-09T13:40:57.807Z,27.40
2024-05-09T13:43:27.978Z,28.00
2024-05-09T13:45:57.419Z,28.60
2024-05-09T13:48:27.879Z,29.30
2024-05-09T13:50:55.142Z,29.70
2024-05-09T13:53:28.077Z,29.90
2024-05-09T13:55:55.377Z,29.90
2024-05-09T13:58:26.107Z,30.00
2024-05-09T14:00:53.904Z,30.00
2024-05-09T14:03:24.680Z,30.00
2024-05-09T14:05:52.309Z,30.40
2024-05-09T14:08:22.968Z,30.70
2024-05-09T14:10:53.961Z,30.70
2024-05-09T14:13:24.430Z,30.90
2024-05-09T14:15:51.835Z,31.80
2024-05-09T14:18:22.216Z,31.20
2024-05-09T14:20:49.770Z,31.50
2024-05-09T14:23:20.669Z,31.60
2024-05-09T14:25:51.317Z,31.80
2024-05-09T14:28:26.590Z,31.80
2024-05-09T14:30:57.006Z,31.70
2024-05-09T14:33:27.687Z,31.60
2024-05-09T14:35:55.457Z,31.50
2024-05-09T14:38:25.726Z,31.40
2024-05-09T14:40:53.540Z,31.50
2024-05-09T14:43:26.504Z,31.70
2024-05-09T14:45:54.592Z,31.90
2024-05-09T14:48:25.904Z,32.00
2024-05-09T14:50:53.304Z,32.00
2024-05-09T14:53:24.034Z,32.20
2024-05-09T14:55:51.359Z,32.30
2024-05-09T14:58:21.900Z,32.60
2024-05-09T15:00:52.543Z,32.70
2024-05-09T15:03:22.952Z,32.90
2024-05-09T15:05:51.463Z,32.80
2024-05-09T15:08:22.353Z,32.70
2024-05-09T15:10:52.758Z,32.80
2024-05-09T15:13:24.352Z,33.00
2024-05-09T15:15:55.955Z,33.10
2024-05-09T15:18:26.520Z,33.20
2024-05-09T15:20:54.175Z,33.20
2024-05-09T15:23:24.145Z,33.30
2024-05-09T15:25:51.865Z,33.40
2024-05-09T15:28:22.061Z,33.40
2024-05-09T15:30:49.647Z,33.60
2024-05-09T15:33:22.540Z,33.80
2024-05-09T15:35:51.543Z,33.50
2024-05-09T15:38:21.923Z,33.50
2024-05-09T15:40:49.201Z,33.60
2024-05-09T15:43:19.567Z,33.60
2024-05-09T15:45:46.808Z,33.80
2024-05-09T15:48:17.327Z,33.90
2024-05-09T15:50:47.187Z,33.90
2024-05-09T15:53:17.570Z,34.00
2024-05-09T15:55:44.770Z,34.00
2024-05-09T15:58:15.309Z,34.20
2024-05-09T16:00:44.238Z,34.10
2024-05-09T16:03:15.986Z,34.20
2024-05-09T16:05:47.338Z,34.30
2024-05-09T16:08:18.214Z,34.40
2024-05-09T16:10:46.438Z,34.40
2024-05-09T16:13:18.153Z,34.50
2024-05-09T16:15:45.814Z,34.60
2024-05-09T16:18:16.085Z,34.70
2024-05-09T16:20:49.214Z,34.80
2024-05-09T16:23:20.442Z,34.80
2024-05-09T16:25:48.840Z,35.00
2024-05-09T16:28:19.804Z,34.90
2024-05-09T16:30:47.891Z,35.00
2024-05-09T16:33:19.845Z,35.20
2024-05-09T16:35:50.024Z,35.20
2024-05-09T16:38:20.115Z,35.30
2024-05-09T16:40:47.580Z,35.30
2024-05-09T16:43:20.601Z,35.50
2024-05-09T16:45:48.047Z,35.60
2024-05-09T16:48:18.069Z,35.60
2024-05-09T16:50:45.646Z,35.80
2024-05-09T16:53:18.366Z,35.80
2024-05-09T16:55:46.004Z,36.00
2024-05-09T16:58:15.933Z,36.00
2024-05-09T17:00:44.295Z,36.10
2024-05-09T17:03:16.131Z,36.20
2024-05-09T17:05:46.892Z,36.30
2024-05-09T17:08:20.880Z,36.40
2024-05-09T17:10:49.843Z,36.50
2024-05-09T17:13:20.541Z,36.70
2024-05-09T17:15:51.500Z,36.80
2024-05-09T17:18:21.707Z,36.90
2024-05-09T17:20:50.422Z,37.00
2024-05-09T17:23:23.343Z,37.10
2024-05-09T17:25:53.252Z,37.20
2024-05-09T17:28:20.795Z,37.40
2024-05-09T17:30:51.449Z,37.50
2024-05-09T17:33:19.375Z,37.70
2024-05-09T17:35:50.706Z,37.80
2024-05-09T17:38:23.268Z,38.00
2024-05-09T17:40:53.675Z,38.00
2024-05-09T17:43:21.147Z,38.10
2024-05-09T17:45:51.553Z,38.20
2024-05-09T17:48:19.140Z,38.30
2024-05-09T17:50:49.596Z,38.30
2024-05-09T17:53:16.741Z,38.30
2024-05-09T17:55:49.469Z,38.50
2024-05-09T17:58:16.974Z,38.60
2024-05-09T18:00:47.065Z,38.70
2024-05-09T18:03:14.897Z,38.80
2024-05-09T18:05:45.632Z,38.90
2024-05-09T18:08:13.571Z,39.50
2024-05-09T18:10:44.538Z,39.00
2024-05-09T18:13:14.794Z,39.00
2024-05-09T18:15:45.479Z,38.90
2024-05-09T18:18:12.988Z,39.00
2024-05-09T18:20:45.749Z,39.10
2024-05-09T18:23:14.379Z,39.30
2024-05-09T18:25:45.890Z,39.20
2024-05-09T18:28:16.920Z,39.40
2024-05-09T18:30:47.550Z,39.50
2024-05-09T18:33:15.194Z,39.40
2024-05-09T18:35:45.860Z,39.50
2024-05-09T18:38:13.284Z,39.50
2024-05-09T18:40:46.110Z,39.70
2024-05-09T18:43:20.230Z,39.70
2024-05-09T18:45:54.070Z,39.80
2024-05-09T18:48:22.065Z,39.90
2024-05-09T18:50:52.425Z,39.80
2024-05-09T18:53:19.776Z,40.00
2024-05-09T18:55:50.086Z,39.90
2024-05-09T18:58:20.345Z,40.00
2024-05-09T19:00:52.079Z,40.10
2024-05-09T19:03:21.670Z,40.10
2024-05-09T19:05:51.914Z,40.60
2024-05-09T19:08:19.551Z,40.20
2024-05-09T19:10:52.548Z,40.80
2024-05-09T19:13:23.070Z,40.60
2024-05-09T19:15:53.065Z,40.60
2024-05-09T19:18:20.759Z,40.70
2024-05-09T19:20:51.113Z,40.70
2024-05-09T19:23:18.464Z,40.80
2024-05-09T19:25:48.473Z,40.90
2024-05-09T19:28:15.901Z,40.90
2024-05-09T19:30:48.531Z,40.90
2024-05-09T19:33:16.126Z,41.00
2024-05-09T19:35:46.491Z,41.00
2024-05-09T19:38:13.731Z,41.10
2024-05-09T19:40:44.114Z,41.20
2024-05-09T19:43:11.424Z,41.20
2024-05-09T19:45:41.474Z,41.40
2024-05-09T19:48:11.753Z,41.40
2024-05-09T19:50:44.203Z,42.10
2024-05-09T19:53:12.865Z,41.60
2024-05-09T19:55:43.011Z,41.60
2024-05-09T19:58:11.265Z,41.60
2024-05-09T20:00:43.592Z,41.70
2024-05-09T20:03:15.730Z,41.70
2024-05-09T20:05:47.676Z,41.80
2024-05-09T20:08:15.295Z,41.80
2024-05-09T20:10:45.784Z,41.90
2024-05-09T20:13:13.789Z,41.90
2024-05-09T20:15:43.931Z,42.00
2024-05-09T20:18:14.699Z,42.00
2024-05-09T20:20:45.521Z,42.00
2024-05-09T20:23:13.536Z,42.10
2024-05-09T20:25:43.452Z,42.10
2024-05-09T20:28:11.313Z,42.20
2024-05-09T20:30:42.080Z,42.20
2024-05-09T20:33:10.222Z,42.10
2024-05-09T20:35:43.346Z,42.20
2024-05-09T20:38:10.927Z,42.30
2024-05-09T20:40:40.832Z,42.20
2024-05-09T20:43:08.692Z,42.30
2024-05-09T20:45:39.326Z,42.40
2024-05-09T20:48:10.379Z,42.30
2024-05-09T20:50:43.958Z,42.40
2024-05-09T20:53:13.198Z,42.50
2024-05-09T20:55:44.898Z,42.40
2024-05-09T20:58:13.235Z,42.50
2024-05-09T21:00:45.361Z,42.60
2024-05-09T21:03:15.613Z,42.60
2024-05-09T21:05:49.264Z,42.60
2024-05-09T21:08:16.707Z,42.70
2024-05-09T21:10:46.616Z,42.70
2024-05-09T21:13:14.050Z,42.70
2024-05-09T21:15:44.027Z,42.80
2024-05-09T21:18:11.364Z,42.80
2024-05-09T21:20:41.466Z,42.80
2024-05-09T21:23:11.517Z,42.90
2024-05-09T21:25:41.745Z,42.80
2024-05-09T21:28:09.318Z,42.80
2024-05-09T21:30:42.507Z,42.90
2024-05-09T21:33:12.548Z,42.90
2024-05-09T21:35:44.798Z,43.00
2024-05-09T21:38:15.737Z,43.00
2024-05-09T21:40:46.648Z,43.00
2024-05-09T21:43:14.772Z,43.10
2024-05-09T21:45:44.843Z,43.00
2024-05-09T21:48:12.854Z,43.00
2024-05-09T21:50:43.254Z,43.20
2024-05-09T21:53:11.046Z,43.10
2024-05-09T21:55:44.232Z,43.10
2024-05-09T21:58:12.030Z,43.20
2024-05-09T22:00:42.975Z,43.20
2024-05-09T22:03:11.703Z,43.20
2024-05-09T22:05:44.645Z,43.20
2024-05-09T22:08:12.742Z,43.30
2024-05-09T22:10:45.470Z,43.30
2024-05-09T22:13:13.111Z,43.30
2024-05-09T22:15:43.152Z,43.30
2024-05-09T22:18:11.457Z,43.30
2024-05-09T22:20:45.825Z,43.40
2024-05-09T22:23:14.800Z,43.30
2024-05-09T22:25:48.475Z,43.40
2024-05-09T22:28:15.968Z,43.40
2024-05-09T22:30:47.403Z,43.50
2024-05-09T22:33:15.892Z,43.50
2024-05-09T22:35:46.003Z,43.50
2024-05-09T22:38:13.656Z,43.50
2024-05-09T22:40:48.318Z,43.50
2024-05-09T22:43:25.001Z,43.60
2024-05-09T22:45:55.723Z,43.60
2024-05-09T22:48:24.264Z,43.60
2024-05-09T22:50:54.951Z,43.60
2024-05-09T22:53:22.766Z,43.60
2024-05-09T22:55:53.079Z,43.70
2024-05-09T22:58:23.414Z,43.70
2024-05-09T23:00:54.097Z,43.70
2024-05-09T23:03:22.753Z,43.80
2024-05-09T23:05:53.353Z,43.80
2024-05-09T23:08:20.555Z,43.80
2024-05-09T23:10:50.999Z,43.80
2024-05-09T23:13:18.412Z,43.80
2024-05-09T23:15:51.512Z,44.00
2024-05-09T23:18:19.014Z,43.90
2024-05-09T23:20:48.981Z,44.00
2024-05-09T23:23:16.527Z,44.00
2024-05-09T23:25:46.433Z,44.10
2024-05-09T23:28:14.106Z,44.10
2024-05-09T23:30:44.219Z,44.20
2024-05-09T23:33:14.806Z,44.10
2024-05-09T23:35:45.059Z,44.20
2024-05-09T23:38:12.629Z,44.20
2024-05-09T23:40:43.232Z,44.30
2024-05-09T23:43:11.595Z,44.20
2024-05-09T23:45:42.949Z,44.30
2024-05-09T23:48:10.944Z,44.30
2024-05-09T23:50:44.162Z,44.40
2024-05-09T23:53:11.618Z,44.30
2024-05-09T23:55:41.834Z,44.40
2024-05-09T23:58:09.750Z,44.40
